Caranaiba, Brazil
Current Conditions -  °F | °C
As of 2:00 PM on Friday 24 Oct 2014 (Local Time) from SBBQ Reporting Station
Few Clouds Few Clouds  
Wind Chill: 81°   Ceiling: Unl
Heat Index: 81°   Visibility: 6mi
Dew Point: 55°   Wind: 6mph
Humidity: 42%   Direction: 20°NNE
Pressure: 30.12"   Gusts: NA
Location:  20.88°S, 43.74°W
Report Text: SBBQ 241600Z 02005KT 9999 FEW040 FEW045TCU 27/13 Q1020
Loading
Personal Weather Stations






























Interactive Weather Map
Tropical Storm Tracking
New forecast layout! Learn more

10-Day Weather Forecast

Advertisements
Track Severe Weather on mobile